sensor_id;sensor_type;location;lat;lon;timestamp;temperature;humidity
61000;SHT31;46879;45.658;11.814;2024-01-16T00:00:51;15.80;68.06
61000;SHT31;46879;45.658;11.814;2024-01-16T00:05:52;15.80;68.17
61000;SHT31;46879;45.658;11.814;2024-01-16T00:10:52;15.78;68.09
61000;SHT31;46879;45.658;11.814;2024-01-16T00:15:53;15.77;68.13
61000;SHT31;46879;45.658;11.814;2024-01-16T00:20:53;15.80;68.24
61000;SHT31;46879;45.658;11.814;2024-01-16T00:25:54;15.78;68.07
61000;SHT31;46879;45.658;11.814;2024-01-16T00:30:54;15.78;68.22
61000;SHT31;46879;45.658;11.814;2024-01-16T00:35:55;15.77;68.27
61000;SHT31;46879;45.658;11.814;2024-01-16T00:40:56;15.75;68.25
61000;SHT31;46879;45.658;11.814;2024-01-16T00:45:56;15.77;68.24
61000;SHT31;46879;45.658;11.814;2024-01-16T00:50:57;15.75;68.31
61000;SHT31;46879;45.658;11.814;2024-01-16T00:55:57;15.75;68.28
61000;SHT31;46879;45.658;11.814;2024-01-16T01:00:58;15.75;68.21
61000;SHT31;46879;45.658;11.814;2024-01-16T01:06:00;15.74;68.39
61000;SHT31;46879;45.658;11.814;2024-01-16T01:11:01;15.78;68.26
61000;SHT31;46879;45.658;11.814;2024-01-16T01:16:01;15.77;68.25
61000;SHT31;46879;45.658;11.814;2024-01-16T01:21:02;15.72;68.42
61000;SHT31;46879;45.658;11.814;2024-01-16T01:26:02;15.74;68.54
61000;SHT31;46879;45.658;11.814;2024-01-16T01:31:04;15.72;68.69
61000;SHT31;46879;45.658;11.814;2024-01-16T01:36:05;15.70;68.78
61000;SHT31;46879;45.658;11.814;2024-01-16T01:41:05;15.71;68.78
61000;SHT31;46879;45.658;11.814;2024-01-16T01:46:19;15.72;68.74
61000;SHT31;46879;45.658;11.814;2024-01-16T01:51:19;15.72;68.93
61000;SHT31;46879;45.658;11.814;2024-01-16T01:56:21;15.68;68.93
61000;SHT31;46879;45.658;11.814;2024-01-16T02:01:22;15.71;69.01
61000;SHT31;46879;45.658;11.814;2024-01-16T02:06:23;15.70;69.02
61000;SHT31;46879;45.658;11.814;2024-01-16T02:11:24;15.67;69.02
61000;SHT31;46879;45.658;11.814;2024-01-16T02:16:25;15.70;69.08
61000;SHT31;46879;45.658;11.814;2024-01-16T02:21:28;15.68;69.12
61000;SHT31;46879;45.658;11.814;2024-01-16T02:26:30;15.65;69.20
61000;SHT31;46879;45.658;11.814;2024-01-16T02:31:35;15.65;69.25
61000;SHT31;46879;45.658;11.814;2024-01-16T02:36:36;15.68;69.14
61000;SHT31;46879;45.658;11.814;2024-01-16T02:41:36;15.65;69.34
61000;SHT31;46879;45.658;11.814;2024-01-16T02:46:37;15.67;69.21
61000;SHT31;46879;45.658;11.814;2024-01-16T02:51:39;15.65;69.32
61000;SHT31;46879;45.658;11.814;2024-01-16T02:56:39;15.67;69.10
61000;SHT31;46879;45.658;11.814;2024-01-16T03:01:40;15.64;69.57
61000;SHT31;46879;45.658;11.814;2024-01-16T03:06:41;15.64;69.36
61000;SHT31;46879;45.658;11.814;2024-01-16T03:11:41;15.63;69.51
61000;SHT31;46879;45.658;11.814;2024-01-16T03:16:42;15.63;69.57
61000;SHT31;46879;45.658;11.814;2024-01-16T03:21:42;15.61;69.65
61000;SHT31;46879;45.658;11.814;2024-01-16T03:26:43;15.60;69.51
61000;SHT31;46879;45.658;11.814;2024-01-16T03:31:43;15.61;69.69
61000;SHT31;46879;45.658;11.814;2024-01-16T03:36:44;15.61;69.55
61000;SHT31;46879;45.658;11.814;2024-01-16T03:41:45;15.61;69.43
61000;SHT31;46879;45.658;11.814;2024-01-16T03:46:45;15.58;69.77
61000;SHT31;46879;45.658;11.814;2024-01-16T03:51:46;15.60;69.69
61000;SHT31;46879;45.658;11.814;2024-01-16T03:56:47;15.58;69.65
61000;SHT31;46879;45.658;11.814;2024-01-16T04:01:47;15.60;69.66
61000;SHT31;46879;45.658;11.814;2024-01-16T04:06:49;15.60;69.79
61000;SHT31;46879;45.658;11.814;2024-01-16T04:11:52;15.58;69.68
61000;SHT31;46879;45.658;11.814;2024-01-16T04:16:53;15.58;69.49
61000;SHT31;46879;45.658;11.814;2024-01-16T04:21:53;15.60;69.65
61000;SHT31;46879;45.658;11.814;2024-01-16T04:26:54;15.60;69.76
61000;SHT31;46879;45.658;11.814;2024-01-16T04:31:54;15.63;69.67
61000;SHT31;46879;45.658;11.814;2024-01-16T04:36:55;15.60;69.58
61000;SHT31;46879;45.658;11.814;2024-01-16T04:41:56;15.60;69.73
61000;SHT31;46879;45.658;11.814;2024-01-16T04:46:56;15.58;69.71
61000;SHT31;46879;45.658;11.814;2024-01-16T04:51:57;15.57;69.78
61000;SHT31;46879;45.658;11.814;2024-01-16T04:56:57;15.53;69.94
61000;SHT31;46879;45.658;11.814;2024-01-16T05:01:58;15.55;69.64
61000;SHT31;46879;45.658;11.814;2024-01-16T05:06:59;15.60;69.54
61000;SHT31;46879;45.658;11.814;2024-01-16T05:12:00;15.57;69.81
61000;SHT31;46879;45.658;11.814;2024-01-16T05:17:01;15.57;69.67
61000;SHT31;46879;45.658;11.814;2024-01-16T05:22:01;15.57;69.87
61000;SHT31;46879;45.658;11.814;2024-01-16T05:27:03;15.53;70.02
61000;SHT31;46879;45.658;11.814;2024-01-16T05:32:05;15.51;69.77
61000;SHT31;46879;45.658;11.814;2024-01-16T05:37:05;15.57;69.76
61000;SHT31;46879;45.658;11.814;2024-01-16T05:42:06;15.53;69.86
61000;SHT31;46879;45.658;11.814;2024-01-16T05:47:07;15.57;69.71
61000;SHT31;46879;45.658;11.814;2024-01-16T05:52:07;15.54;69.73
61000;SHT31;46879;45.658;11.814;2024-01-16T05:57:08;15.53;69.84
61000;SHT31;46879;45.658;11.814;2024-01-16T06:02:08;15.54;69.76
61000;SHT31;46879;45.658;11.814;2024-01-16T06:07:09;15.57;69.65
61000;SHT31;46879;45.658;11.814;2024-01-16T06:12:09;15.54;69.84
61000;SHT31;46879;45.658;11.814;2024-01-16T06:17:10;15.53;69.66
61000;SHT31;46879;45.658;11.814;2024-01-16T06:22:11;15.50;70.04
61000;SHT31;46879;45.658;11.814;2024-01-16T06:27:12;15.51;70.00
61000;SHT31;46879;45.658;11.814;2024-01-16T06:32:19;15.46;70.16
61000;SHT31;46879;45.658;11.814;2024-01-16T06:37:19;15.50;70.12
61000;SHT31;46879;45.658;11.814;2024-01-16T06:42:20;15.47;70.20
61000;SHT31;46879;45.658;11.814;2024-01-16T06:47:21;15.50;70.12
61000;SHT31;46879;45.658;11.814;2024-01-16T06:52:21;15.49;70.47
61000;SHT31;46879;45.658;11.814;2024-01-16T06:57:22;15.51;68.88
61000;SHT31;46879;45.658;11.814;2024-01-16T07:02:23;15.47;68.23
61000;SHT31;46879;45.658;11.814;2024-01-16T07:07:23;15.47;67.34
61000;SHT31;46879;45.658;11.814;2024-01-16T07:12:24;15.46;67.34
61000;SHT31;46879;45.658;11.814;2024-01-16T07:17:25;15.54;66.50
61000;SHT31;46879;45.658;11.814;2024-01-16T07:22:26;15.51;66.66
61000;SHT31;46879;45.658;11.814;2024-01-16T07:27:27;15.49;65.98
61000;SHT31;46879;45.658;11.814;2024-01-16T07:32:28;15.53;65.41
61000;SHT31;46879;45.658;11.814;2024-01-16T07:37:28;15.51;65.10
61000;SHT31;46879;45.658;11.814;2024-01-16T07:42:29;15.51;64.93
61000;SHT31;46879;45.658;11.814;2024-01-16T07:47:34;15.51;65.28
61000;SHT31;46879;45.658;11.814;2024-01-16T07:52:36;15.51;64.75
61000;SHT31;46879;45.658;11.814;2024-01-16T07:57:37;15.51;64.97
61000;SHT31;46879;45.658;11.814;2024-01-16T08:02:37;15.50;64.94
61000;SHT31;46879;45.658;11.814;2024-01-16T08:07:38;15.51;64.94
61000;SHT31;46879;45.658;11.814;2024-01-16T08:12:39;15.49;64.53
61000;SHT31;46879;45.658;11.814;2024-01-16T08:17:39;15.51;64.47
61000;SHT31;46879;45.658;11.814;2024-01-16T08:22:40;15.53;64.42
61000;SHT31;46879;45.658;11.814;2024-01-16T08:27:40;15.53;64.25
61000;SHT31;46879;45.658;11.814;2024-01-16T08:32:41;15.50;64.19
61000;SHT31;46879;45.658;11.814;2024-01-16T08:37:41;15.51;63.86
61000;SHT31;46879;45.658;11.814;2024-01-16T08:42:42;15.50;63.96
61000;SHT31;46879;45.658;11.814;2024-01-16T08:47:43;15.50;63.91
61000;SHT31;46879;45.658;11.814;2024-01-16T08:52:44;15.51;63.54
61000;SHT31;46879;45.658;11.814;2024-01-16T08:57:44;15.50;63.43
61000;SHT31;46879;45.658;11.814;2024-01-16T09:02:45;15.49;63.14
61000;SHT31;46879;45.658;11.814;2024-01-16T09:07:45;15.49;63.38
61000;SHT31;46879;45.658;11.814;2024-01-16T09:12:47;15.49;63.28
61000;SHT31;46879;45.658;11.814;2024-01-16T09:17:49;15.49;63.40
61000;SHT31;46879;45.658;11.814;2024-01-16T09:22:49;15.47;63.48
61000;SHT31;46879;45.658;11.814;2024-01-16T09:27:50;15.50;63.19
61000;SHT31;46879;45.658;11.814;2024-01-16T09:32:51;15.49;63.33
61000;SHT31;46879;45.658;11.814;2024-01-16T09:37:51;15.49;63.16
61000;SHT31;46879;45.658;11.814;2024-01-16T09:42:52;15.49;63.42
61000;SHT31;46879;45.658;11.814;2024-01-16T09:47:53;15.49;63.19
61000;SHT31;46879;45.658;11.814;2024-01-16T09:52:53;15.51;63.04
61000;SHT31;46879;45.658;11.814;2024-01-16T09:57:54;15.50;63.05
61000;SHT31;46879;45.658;11.814;2024-01-16T10:02:56;15.49;63.13
61000;SHT31;46879;45.658;11.814;2024-01-16T10:07:59;15.50;63.19
61000;SHT31;46879;45.658;11.814;2024-01-16T10:12:59;15.51;63.28
61000;SHT31;46879;45.658;11.814;2024-01-16T10:18:00;15.49;63.24
61000;SHT31;46879;45.658;11.814;2024-01-16T10:23:01;15.49;63.22
61000;SHT31;46879;45.658;11.814;2024-01-16T10:28:05;15.50;63.15
61000;SHT31;46879;45.658;11.814;2024-01-16T10:33:15;15.50;63.12
61000;SHT31;46879;45.658;11.814;2024-01-16T10:38:20;15.47;63.13
61000;SHT31;46879;45.658;11.814;2024-01-16T10:43:22;15.49;63.17
61000;SHT31;46879;45.658;11.814;2024-01-16T10:48:23;15.46;63.22
61000;SHT31;46879;45.658;11.814;2024-01-16T10:53:25;15.46;63.21
61000;SHT31;46879;45.658;11.814;2024-01-16T10:58:30;15.47;63.17
61000;SHT31;46879;45.658;11.814;2024-01-16T11:03:46;15.46;62.90
61000;SHT31;46879;45.658;11.814;2024-01-16T11:08:48;15.47;63.03
61000;SHT31;46879;45.658;11.814;2024-01-16T11:13:50;15.49;63.00
61000;SHT31;46879;45.658;11.814;2024-01-16T11:18:51;15.47;62.76
61000;SHT31;46879;45.658;11.814;2024-01-16T11:23:51;15.49;62.93
61000;SHT31;46879;45.658;11.814;2024-01-16T11:28:53;15.47;62.83
61000;SHT31;46879;45.658;11.814;2024-01-16T11:33:57;15.47;62.92
61000;SHT31;46879;45.658;11.814;2024-01-16T11:39:00;15.47;63.01
61000;SHT31;46879;45.658;11.814;2024-01-16T11:44:01;15.46;63.31
61000;SHT31;46879;45.658;11.814;2024-01-16T11:49:03;15.49;63.32
61000;SHT31;46879;45.658;11.814;2024-01-16T11:54:08;15.46;63.39
61000;SHT31;46879;45.658;11.814;2024-01-16T12:04:53;15.43;63.58
61000;SHT31;46879;45.658;11.814;2024-01-16T12:10:04;15.46;63.58
61000;SHT31;46879;45.658;11.814;2024-01-16T12:15:14;15.46;63.54
61000;SHT31;46879;45.658;11.814;2024-01-16T12:20:18;15.46;63.58
61000;SHT31;46879;45.658;11.814;2024-01-16T12:25:24;15.49;63.38
61000;SHT31;46879;45.658;11.814;2024-01-16T12:30:26;15.46;63.58
61000;SHT31;46879;45.658;11.814;2024-01-16T12:40:29;15.46;63.58
61000;SHT31;46879;45.658;11.814;2024-01-16T12:45:30;15.44;63.58
61000;SHT31;46879;45.658;11.814;2024-01-16T12:50:32;15.46;63.63
61000;SHT31;46879;45.658;11.814;2024-01-16T12:55:36;15.46;63.67
61000;SHT31;46879;45.658;11.814;2024-01-16T13:00:37;15.47;63.72
61000;SHT31;46879;45.658;11.814;2024-01-16T13:05:39;15.47;63.78
61000;SHT31;46879;45.658;11.814;2024-01-16T13:10:39;15.47;63.87
61000;SHT31;46879;45.658;11.814;2024-01-16T13:15:41;15.43;63.86
61000;SHT31;46879;45.658;11.814;2024-01-16T13:20:41;15.43;63.99
61000;SHT31;46879;45.658;11.814;2024-01-16T13:25:44;15.42;64.02
61000;SHT31;46879;45.658;11.814;2024-01-16T13:30:48;15.44;64.05
61000;SHT31;46879;45.658;11.814;2024-01-16T13:35:49;15.40;64.15
61000;SHT31;46879;45.658;11.814;2024-01-16T13:40:49;15.42;64.10
61000;SHT31;46879;45.658;11.814;2024-01-16T13:45:50;15.44;64.04
61000;SHT31;46879;45.658;11.814;2024-01-16T13:50:52;15.43;64.11
61000;SHT31;46879;45.658;11.814;2024-01-16T13:55:52;15.44;64.12
61000;SHT31;46879;45.658;11.814;2024-01-16T14:00:53;15.43;64.27
61000;SHT31;46879;45.658;11.814;2024-01-16T14:05:54;15.43;64.29
61000;SHT31;46879;45.658;11.814;2024-01-16T14:10:56;15.40;64.29
61000;SHT31;46879;45.658;11.814;2024-01-16T14:15:56;15.42;64.32
61000;SHT31;46879;45.658;11.814;2024-01-16T14:20:57;15.40;64.28
61000;SHT31;46879;45.658;11.814;2024-01-16T14:25:58;15.40;64.40
61000;SHT31;46879;45.658;11.814;2024-01-16T14:30:59;15.40;64.39
61000;SHT31;46879;45.658;11.814;2024-01-16T14:36:00;15.40;64.44
61000;SHT31;46879;45.658;11.814;2024-01-16T14:41:01;15.39;64.34
61000;SHT31;46879;45.658;11.814;2024-01-16T14:46:01;15.43;64.27
61000;SHT31;46879;45.658;11.814;2024-01-16T14:51:04;15.39;64.17
61000;SHT31;46879;45.658;11.814;2024-01-16T14:56:05;15.40;64.23
61000;SHT31;46879;45.658;11.814;2024-01-16T15:01:05;15.39;64.09
61000;SHT31;46879;45.658;11.814;2024-01-16T15:06:07;15.39;64.05
61000;SHT31;46879;45.658;11.814;2024-01-16T15:11:11;15.40;63.98
61000;SHT31;46879;45.658;11.814;2024-01-16T15:16:11;15.37;63.87
61000;SHT31;46879;45.658;11.814;2024-01-16T15:21:12;15.39;63.90
61000;SHT31;46879;45.658;11.814;2024-01-16T15:26:12;15.40;63.92
61000;SHT31;46879;45.658;11.814;2024-01-16T15:31:19;15.40;63.95
61000;SHT31;46879;45.658;11.814;2024-01-16T15:36:21;15.40;64.09
61000;SHT31;46879;45.658;11.814;2024-01-16T15:41:22;15.40;64.06
61000;SHT31;46879;45.658;11.814;2024-01-16T15:46:23;15.40;63.95
61000;SHT31;46879;45.658;11.814;2024-01-16T15:51:24;15.40;64.05
61000;SHT31;46879;45.658;11.814;2024-01-16T15:56:24;15.40;63.90
61000;SHT31;46879;45.658;11.814;2024-01-16T16:01:27;15.37;63.85
61000;SHT31;46879;45.658;11.814;2024-01-16T16:06:28;15.39;64.04
61000;SHT31;46879;45.658;11.814;2024-01-16T16:11:28;15.39;63.99
61000;SHT31;46879;45.658;11.814;2024-01-16T16:16:33;15.39;63.93
61000;SHT31;46879;45.658;11.814;2024-01-16T16:21:34;15.40;63.83
61000;SHT31;46879;45.658;11.814;2024-01-16T16:26:39;15.37;64.00
61000;SHT31;46879;45.658;11.814;2024-01-16T16:31:42;15.40;63.80
61000;SHT31;46879;45.658;11.814;2024-01-16T16:36:46;15.39;63.71
61000;SHT31;46879;45.658;11.814;2024-01-16T16:41:46;15.37;63.61
61000;SHT31;46879;45.658;11.814;2024-01-16T16:46:47;15.37;63.51
61000;SHT31;46879;45.658;11.814;2024-01-16T16:51:47;15.37;63.54
61000;SHT31;46879;45.658;11.814;2024-01-16T16:56:48;15.34;63.58
61000;SHT31;46879;45.658;11.814;2024-01-16T17:01:49;15.36;63.53
61000;SHT31;46879;45.658;11.814;2024-01-16T17:06:51;15.37;63.48
61000;SHT31;46879;45.658;11.814;2024-01-16T17:11:54;15.34;63.10
61000;SHT31;46879;45.658;11.814;2024-01-16T17:16:56;15.39;62.65
61000;SHT31;46879;45.658;11.814;2024-01-16T17:21:57;15.40;62.68
61000;SHT31;46879;45.658;11.814;2024-01-16T17:26:57;15.43;62.53
61000;SHT31;46879;45.658;11.814;2024-01-16T17:31:58;15.42;62.33
61000;SHT31;46879;45.658;11.814;2024-01-16T17:36:58;15.47;62.77
61000;SHT31;46879;45.658;11.814;2024-01-16T17:41:59;15.50;62.11
61000;SHT31;46879;45.658;11.814;2024-01-16T17:47:00;15.49;62.70
61000;SHT31;46879;45.658;11.814;2024-01-16T17:52:00;15.50;62.99
61000;SHT31;46879;45.658;11.814;2024-01-16T17:57:04;15.50;62.61
61000;SHT31;46879;45.658;11.814;2024-01-16T18:02:04;15.46;62.84
61000;SHT31;46879;45.658;11.814;2024-01-16T18:07:10;15.46;62.96
61000;SHT31;46879;45.658;11.814;2024-01-16T18:12:12;15.46;62.93
61000;SHT31;46879;45.658;11.814;2024-01-16T18:17:12;15.47;64.16
61000;SHT31;46879;45.658;11.814;2024-01-16T18:22:13;15.47;67.10
61000;SHT31;46879;45.658;11.814;2024-01-16T18:27:14;15.49;67.58
61000;SHT31;46879;45.658;11.814;2024-01-16T18:32:15;15.49;67.57
61000;SHT31;46879;45.658;11.814;2024-01-16T18:37:17;15.49;67.52
61000;SHT31;46879;45.658;11.814;2024-01-16T18:42:19;15.49;67.68
61000;SHT31;46879;45.658;11.814;2024-01-16T18:47:22;15.49;67.72
61000;SHT31;46879;45.658;11.814;2024-01-16T18:52:25;15.51;67.16
61000;SHT31;46879;45.658;11.814;2024-01-16T18:57:25;15.50;66.70
61000;SHT31;46879;45.658;11.814;2024-01-16T19:02:26;15.51;66.97
61000;SHT31;46879;45.658;11.814;2024-01-16T19:07:28;15.54;65.66
61000;SHT31;46879;45.658;11.814;2024-01-16T19:12:28;15.54;65.24
61000;SHT31;46879;45.658;11.814;2024-01-16T19:17:29;15.57;64.87
61000;SHT31;46879;45.658;11.814;2024-01-16T19:22:31;15.58;64.64
61000;SHT31;46879;45.658;11.814;2024-01-16T19:27:31;15.63;64.52
61000;SHT31;46879;45.658;11.814;2024-01-16T19:32:32;15.63;64.50
61000;SHT31;46879;45.658;11.814;2024-01-16T19:37:32;15.67;64.01
61000;SHT31;46879;45.658;11.814;2024-01-16T19:42:34;15.68;64.23
61000;SHT31;46879;45.658;11.814;2024-01-16T19:47:35;15.65;64.11
61000;SHT31;46879;45.658;11.814;2024-01-16T19:52:38;15.65;63.92
61000;SHT31;46879;45.658;11.814;2024-01-16T19:57:39;15.65;63.94
61000;SHT31;46879;45.658;11.814;2024-01-16T20:02:42;15.67;64.12
61000;SHT31;46879;45.658;11.814;2024-01-16T20:07:44;15.65;63.95
61000;SHT31;46879;45.658;11.814;2024-01-16T20:12:46;15.67;63.79
61000;SHT31;46879;45.658;11.814;2024-01-16T20:17:50;15.70;63.83
61000;SHT31;46879;45.658;11.814;2024-01-16T20:22:53;15.70;63.92
61000;SHT31;46879;45.658;11.814;2024-01-16T20:27:54;15.68;64.08
61000;SHT31;46879;45.658;11.814;2024-01-16T20:32:55;15.72;63.95
61000;SHT31;46879;45.658;11.814;2024-01-16T20:37:55;15.71;63.98
61000;SHT31;46879;45.658;11.814;2024-01-16T20:42:56;15.71;64.19
61000;SHT31;46879;45.658;11.814;2024-01-16T20:47:57;15.72;63.92
61000;SHT31;46879;45.658;11.814;2024-01-16T20:52:57;15.74;63.68
61000;SHT31;46879;45.658;11.814;2024-01-16T20:57:59;15.75;63.53
61000;SHT31;46879;45.658;11.814;2024-01-16T21:03:00;15.74;63.93
61000;SHT31;46879;45.658;11.814;2024-01-16T21:08:07;15.74;63.94
61000;SHT31;46879;45.658;11.814;2024-01-16T21:13:12;15.75;63.54
61000;SHT31;46879;45.658;11.814;2024-01-16T21:18:14;15.72;63.57
61000;SHT31;46879;45.658;11.814;2024-01-16T21:23:16;15.74;63.20
61000;SHT31;46879;45.658;11.814;2024-01-16T21:28:17;15.72;63.49
61000;SHT31;46879;45.658;11.814;2024-01-16T21:33:18;15.77;62.99
61000;SHT31;46879;45.658;11.814;2024-01-16T21:38:18;15.74;63.28
61000;SHT31;46879;45.658;11.814;2024-01-16T21:43:19;15.77;63.23
61000;SHT31;46879;45.658;11.814;2024-01-16T21:48:21;15.77;63.24
61000;SHT31;46879;45.658;11.814;2024-01-16T21:53:22;15.78;62.93
61000;SHT31;46879;45.658;11.814;2024-01-16T21:58:22;15.81;62.59
61000;SHT31;46879;45.658;11.814;2024-01-16T22:03:23;15.81;62.36
61000;SHT31;46879;45.658;11.814;2024-01-16T22:08:24;15.80;62.39
61000;SHT31;46879;45.658;11.814;2024-01-16T22:13:24;15.80;62.66
61000;SHT31;46879;45.658;11.814;2024-01-16T22:18:25;15.77;62.70
61000;SHT31;46879;45.658;11.814;2024-01-16T22:23:26;15.78;62.77
61000;SHT31;46879;45.658;11.814;2024-01-16T22:28:27;15.78;62.55
61000;SHT31;46879;45.658;11.814;2024-01-16T22:33:28;15.75;62.74
61000;SHT31;46879;45.658;11.814;2024-01-16T22:38:29;15.74;62.77
61000;SHT31;46879;45.658;11.814;2024-01-16T22:43:30;15.74;62.56
61000;SHT31;46879;45.658;11.814;2024-01-16T22:48:31;15.75;62.44
61000;SHT31;46879;45.658;11.814;2024-01-16T22:53:32;15.71;62.20
61000;SHT31;46879;45.658;11.814;2024-01-16T22:58:32;15.72;61.97
61000;SHT31;46879;45.658;11.814;2024-01-16T23:03:33;15.74;61.98
61000;SHT31;46879;45.658;11.814;2024-01-16T23:08:33;15.72;61.84
61000;SHT31;46879;45.658;11.814;2024-01-16T23:13:34;15.75;62.11
61000;SHT31;46879;45.658;11.814;2024-01-16T23:18:35;15.71;62.15
61000;SHT31;46879;45.658;11.814;2024-01-16T23:23:36;15.74;62.16
61000;SHT31;46879;45.658;11.814;2024-01-16T23:28:37;15.72;62.44
61000;SHT31;46879;45.658;11.814;2024-01-16T23:33:38;15.71;62.85
61000;SHT31;46879;45.658;11.814;2024-01-16T23:38:39;15.71;63.18
61000;SHT31;46879;45.658;11.814;2024-01-16T23:43:41;15.70;63.43
61000;SHT31;46879;45.658;11.814;2024-01-16T23:48:43;15.70;63.56
61000;SHT31;46879;45.658;11.814;2024-01-16T23:53:44;15.68;63.66
61000;SHT31;46879;45.658;11.814;2024-01-16T23:58:45;15.67;63.92
